Dillon, Montana
Current Conditions -  °F | °C
As of 5:53 PM on Tuesday 21 Oct 2014 (Local Time) from KDLN Reporting Station
Light Rain Light Rain  
Wind Chill: 38°   Ceiling: 9500
Heat Index: 44°   Visibility: 10mi
Dew Point: 37°   Wind: 12mph
Humidity: 76%   Direction: 220°SW
Pressure: 29.98"   Gusts: NA
Location:  45.22°N, 112.64°W
Report Text: KDLN 212353Z AUTO 22010KT 10SM -RA FEW060 FEW080 OVC095 07/03 A2998 RMK AO2 SLP133 P0000 60021 T00670028 10083 20050 51021
Loading
Personal Weather Stations






























Interactive Weather Map
Tropical Storm Tracking
New forecast layout! Learn more

10-Day Weather Forecast

Advertisements
Track Severe Weather on mobile